createdAt,value
2023-04-26T00:02:04.697Z,4.45
2023-04-26T00:04:32.460Z,4.70
2023-04-26T00:07:00.649Z,3.97
2023-04-26T00:09:28.016Z,4.78
2023-04-26T00:11:55.620Z,4.45
2023-04-26T00:14:23.130Z,5.47
2023-04-26T00:16:50.748Z,4.55
2023-04-26T00:19:18.388Z,4.88
2023-04-26T00:21:45.837Z,5.22
2023-04-26T00:24:13.400Z,4.82
2023-04-26T00:26:41.038Z,4.85
2023-04-26T00:29:08.712Z,6.00
2023-04-26T00:31:36.285Z,4.47
2023-04-26T00:34:04.159Z,5.22
2023-04-26T00:36:32.730Z,5.07
2023-04-26T00:39:00.272Z,5.32
2023-04-26T00:41:29.298Z,5.55
2023-04-26T00:43:56.890Z,5.20
2023-04-26T00:46:24.663Z,5.20
2023-04-26T00:48:52.544Z,5.45
2023-04-26T00:51:21.362Z,5.80
2023-04-26T00:53:49.323Z,5.63
2023-04-26T00:56:17.245Z,5.40
2023-04-26T00:58:46.388Z,5.63
2023-04-26T01:01:13.918Z,5.13
2023-04-26T01:03:44.428Z,5.25
2023-04-26T01:06:12.691Z,5.10
2023-04-26T01:08:40.587Z,5.25
2023-04-26T01:11:08.590Z,5.38
2023-04-26T01:13:38.173Z,5.30
2023-04-26T01:16:08.648Z,5.43
2023-04-26T01:18:37.706Z,5.15
2023-04-26T01:21:05.458Z,4.57
2023-04-26T01:23:32.986Z,5.00
2023-04-26T01:26:00.532Z,5.22
2023-04-26T01:28:28.005Z,6.07
2023-04-26T01:30:55.667Z,5.32
2023-04-26T01:33:23.916Z,5.85
2023-04-26T01:35:52.784Z,5.55
2023-04-26T01:38:20.838Z,4.60
2023-04-26T01:40:48.304Z,5.10
2023-04-26T01:43:18.428Z,5.57
2023-04-26T01:45:49.040Z,5.35
2023-04-26T01:48:31.983Z,4.93
2023-04-26T01:51:02.513Z,5.35
2023-04-26T01:53:30.147Z,5.57
2023-04-26T01:56:02.551Z,5.50
2023-04-26T01:58:31.844Z,5.13
2023-04-26T02:01:10.124Z,5.60
2023-04-26T02:03:38.413Z,5.60
2023-04-26T02:06:06.062Z,5.68
2023-04-26T02:08:34.126Z,5.20
2023-04-26T02:11:02.069Z,5.53
2023-04-26T02:13:31.586Z,5.43
2023-04-26T02:15:59.430Z,5.50
2023-04-26T02:18:27.692Z,5.55
2023-04-26T02:20:55.481Z,5.53
2023-04-26T02:23:24.280Z,5.00
2023-04-26T02:25:52.145Z,4.85
2023-04-26T02:28:19.798Z,5.72
2023-04-26T02:30:47.837Z,5.50
2023-04-26T02:33:15.444Z,5.05
2023-04-26T02:35:42.972Z,4.85
2023-04-26T02:38:11.534Z,4.85
2023-04-26T02:40:39.044Z,5.35
2023-04-26T02:43:07.396Z,6.47
2023-04-26T02:45:35.072Z,5.35
2023-04-26T02:48:02.702Z,4.70
2023-04-26T02:50:30.475Z,6.05
2023-04-26T02:52:58.066Z,4.93
2023-04-26T02:55:25.772Z,4.72
2023-04-26T02:57:54.346Z,5.10
2023-04-26T03:00:22.244Z,4.95
2023-04-26T03:02:49.858Z,4.60
2023-04-26T03:05:19.997Z,4.72
2023-04-26T03:07:47.506Z,5.55
2023-04-26T03:10:15.100Z,4.93
2023-04-26T03:12:42.910Z,5.15
2023-04-26T03:15:10.725Z,4.57
2023-04-26T03:17:40.449Z,4.57
2023-04-26T03:20:08.972Z,5.00
2023-04-26T03:22:37.049Z,4.65
2023-04-26T03:25:07.723Z,4.53
2023-04-26T03:27:35.747Z,4.55
2023-04-26T03:30:04.385Z,4.57
2023-04-26T03:32:34.267Z,5.10
2023-04-26T03:35:02.802Z,4.40
2023-04-26T03:37:31.087Z,4.68
2023-04-26T03:40:04.476Z,4.28
2023-04-26T03:42:33.544Z,5.03
2023-04-26T03:45:01.348Z,4.70
2023-04-26T03:47:29.257Z,4.43
2023-04-26T03:49:58.007Z,4.82
2023-04-26T03:52:26.355Z,4.57
2023-04-26T03:54:54.925Z,4.53
2023-04-26T03:57:23.016Z,4.88
2023-04-26T03:59:51.273Z,4.35
2023-04-26T04:02:18.989Z,4.95
2023-04-26T04:04:47.041Z,4.82
2023-04-26T04:07:16.591Z,4.45
2023-04-26T04:09:43.988Z,4.53
2023-04-26T04:12:11.610Z,4.35
2023-04-26T04:14:39.606Z,4.57
2023-04-26T04:17:08.525Z,4.63
2023-04-26T04:19:37.698Z,4.80
2023-04-26T04:22:05.174Z,5.28
2023-04-26T04:24:34.357Z,4.38
2023-04-26T04:27:03.382Z,4.22
2023-04-26T04:29:31.690Z,4.28
2023-04-26T04:31:59.642Z,4.32
2023-04-26T04:34:27.401Z,4.40
2023-04-26T04:36:55.403Z,4.22
2023-04-26T04:39:23.793Z,4.15
2023-04-26T04:41:51.697Z,4.55
2023-04-26T04:44:21.434Z,3.42
2023-04-26T04:46:49.126Z,4.15
2023-04-26T04:49:18.761Z,3.97
2023-04-26T04:51:46.589Z,3.78
2023-04-26T04:54:16.670Z,3.50
2023-04-26T04:56:45.476Z,3.47
2023-04-26T04:59:15.081Z,4.18
2023-04-26T05:01:42.941Z,3.80
2023-04-26T05:04:14.524Z,4.20
2023-04-26T05:06:42.808Z,3.35
2023-04-26T05:09:11.417Z,3.10
2023-04-26T05:11:39.267Z,3.40
2023-04-26T05:14:10.040Z,4.28
2023-04-26T05:16:38.474Z,3.90
2023-04-26T05:19:08.048Z,4.20
2023-04-26T05:24:04.675Z,3.67
2023-04-26T05:26:34.782Z,4.13
2023-04-26T05:29:32.695Z,3.90
2023-04-26T05:34:35.646Z,3.92
2023-04-26T05:37:03.749Z,3.85
2023-04-26T05:39:31.937Z,3.60
2023-04-26T05:41:59.648Z,3.17
2023-04-26T05:44:27.422Z,4.25
2023-04-26T05:46:55.163Z,4.20
2023-04-26T05:49:22.790Z,4.75
2023-04-26T05:51:50.619Z,4.03
2023-04-26T05:54:18.793Z,4.32
2023-04-26T05:56:46.650Z,3.83
2023-04-26T05:59:14.370Z,4.03
2023-04-26T06:01:42.098Z,4.05
2023-04-26T06:04:10.131Z,3.50
2023-04-26T06:06:48.119Z,4.07
2023-04-26T06:09:17.337Z,3.92
2023-04-26T06:11:46.683Z,3.50
2023-04-26T06:14:29.472Z,4.97
2023-04-26T06:17:02.089Z,3.15
2023-04-26T06:19:30.173Z,3.50
2023-04-26T06:21:58.552Z,3.30
2023-04-26T06:24:26.843Z,3.35
2023-04-26T06:26:54.360Z,3.33
2023-04-26T06:29:22.086Z,3.53
2023-04-26T06:31:49.629Z,3.47
2023-04-26T06:34:19.084Z,3.30
2023-04-26T06:36:47.314Z,3.60
2023-04-26T06:39:15.449Z,3.05
2023-04-26T06:41:44.036Z,3.83
2023-04-26T06:44:12.914Z,3.08
2023-04-26T06:46:43.615Z,3.50
2023-04-26T06:49:11.746Z,3.00
2023-04-26T06:51:39.169Z,3.95
2023-04-26T06:54:06.584Z,3.33
2023-04-26T06:56:34.950Z,3.25
2023-04-26T06:59:04.436Z,3.30
2023-04-26T07:01:34.076Z,3.05
2023-04-26T07:04:03.862Z,3.80
2023-04-26T07:06:31.550Z,3.35
2023-04-26T07:09:01.233Z,3.72
2023-04-26T07:11:29.366Z,3.80
2023-04-26T07:13:57.252Z,3.35
2023-04-26T07:16:25.899Z,3.20
2023-04-26T07:18:53.465Z,3.67
2023-04-26T07:21:21.085Z,3.45
2023-04-26T07:23:48.456Z,3.80
2023-04-26T07:26:15.833Z,3.75
2023-04-26T07:28:43.242Z,3.83
2023-04-26T07:31:11.082Z,3.78
2023-04-26T07:33:38.905Z,3.10
2023-04-26T07:36:06.695Z,3.25
2023-04-26T07:38:34.220Z,3.55
2023-04-26T07:41:01.852Z,3.22
2023-04-26T07:43:30.817Z,3.38
2023-04-26T07:46:03.429Z,3.50
2023-04-26T07:48:31.076Z,3.50
2023-04-26T07:51:07.868Z,3.25
2023-04-26T07:53:35.744Z,3.80
2023-04-26T07:56:07.975Z,3.20
2023-04-26T07:58:39.564Z,3.97
2023-04-26T08:01:07.075Z,4.80
2023-04-26T08:03:35.005Z,3.53
2023-04-26T08:06:02.963Z,3.65
2023-04-26T08:08:30.608Z,3.88
2023-04-26T08:10:57.993Z,3.55
2023-04-26T08:13:28.586Z,4.15
2023-04-26T08:15:56.845Z,4.38
2023-04-26T08:18:24.229Z,3.60
2023-04-26T08:20:51.606Z,4.18
2023-04-26T08:23:19.682Z,3.60
2023-04-26T08:25:49.701Z,3.83
2023-04-26T08:28:17.171Z,3.63
2023-04-26T08:30:44.687Z,3.60
2023-04-26T08:33:12.313Z,3.17
2023-04-26T08:35:39.723Z,4.43
2023-04-26T08:38:07.277Z,4.10
2023-04-26T08:40:36.627Z,4.05
2023-04-26T08:43:04.335Z,3.88
2023-04-26T08:45:33.640Z,3.72
2023-04-26T08:48:07.277Z,3.75
2023-04-26T08:50:36.619Z,4.00
2023-04-26T08:53:04.508Z,4.30
2023-04-26T08:55:35.862Z,4.20
2023-04-26T08:58:04.910Z,3.80
2023-04-26T09:00:32.731Z,3.92
2023-04-26T09:03:01.426Z,4.43
2023-04-26T09:05:29.179Z,4.47
2023-04-26T09:08:00.767Z,3.63
2023-04-26T09:10:28.403Z,4.10
2023-04-26T09:12:56.538Z,3.85
2023-04-26T09:15:27.088Z,4.45
2023-04-26T09:17:55.112Z,4.57
2023-04-26T09:20:23.060Z,3.92
2023-04-26T09:22:53.216Z,4.07
2023-04-26T09:25:29.419Z,3.80
2023-04-26T09:27:58.497Z,4.13
2023-04-26T09:30:26.768Z,3.95
2023-04-26T09:32:58.302Z,4.07
2023-04-26T09:35:37.369Z,3.58
2023-04-26T09:38:13.250Z,3.88
2023-04-26T09:40:46.747Z,3.90
2023-04-26T09:43:16.793Z,4.28
2023-04-26T09:45:50.350Z,3.88
2023-04-26T09:48:31.555Z,4.68
2023-04-26T09:51:02.570Z,4.20
2023-04-26T09:53:38.625Z,4.28
2023-04-26T09:56:19.991Z,3.67
2023-04-26T09:58:47.533Z,3.97
2023-04-26T10:01:17.789Z,3.80
2023-04-26T10:03:46.695Z,4.35
2023-04-26T10:06:15.482Z,4.35
2023-04-26T10:08:43.930Z,4.40
2023-04-26T10:11:12.772Z,3.55
2023-04-26T10:13:41.902Z,3.88
2023-04-26T10:16:12.750Z,3.45
2023-04-26T10:21:19.004Z,3.67
2023-04-26T10:23:48.821Z,3.42
2023-04-26T10:26:54.572Z,3.40
2023-04-26T10:29:23.388Z,4.03
2023-04-26T10:32:04.372Z,3.50
2023-04-26T10:34:33.598Z,3.53
2023-04-26T10:37:15.057Z,5.60
2023-04-26T10:39:47.031Z,4.80
2023-04-26T10:42:28.298Z,3.33
2023-04-26T10:44:57.194Z,4.90
2023-04-26T10:47:37.612Z,3.20
2023-04-26T10:50:10.572Z,3.70
2023-04-26T10:53:02.529Z,3.40
2023-04-26T10:55:43.271Z,2.92
2023-04-26T10:58:32.955Z,3.55
2023-04-26T11:01:13.456Z,3.70
2023-04-26T11:03:41.609Z,3.25
2023-04-26T11:06:13.580Z,2.60
2023-04-26T11:08:41.532Z,3.08
2023-04-26T11:11:12.467Z,3.28
2023-04-26T11:16:13.049Z,3.05
2023-04-26T11:18:42.942Z,3.58
2023-04-26T11:21:11.205Z,3.17
2023-04-26T11:23:39.053Z,3.30
2023-04-26T11:26:08.388Z,3.97
2023-04-26T11:28:37.813Z,2.95
2023-04-26T11:31:07.190Z,3.22
2023-04-26T11:33:34.667Z,3.58
2023-04-26T11:36:02.328Z,3.05
2023-04-26T11:38:30.332Z,3.60
2023-04-26T11:41:01.504Z,3.97
2023-04-26T11:43:32.761Z,3.40
2023-04-26T11:46:01.425Z,2.95
2023-04-26T11:48:30.338Z,3.15
2023-04-26T11:50:59.784Z,4.72
2023-04-26T11:53:43.264Z,3.83
2023-04-26T11:56:18.419Z,2.95
2023-04-26T11:58:50.517Z,3.70
2023-04-26T12:01:23.700Z,2.90
2023-04-26T12:03:53.944Z,3.28
2023-04-26T12:06:30.358Z,3.33
2023-04-26T12:08:58.238Z,3.78
2023-04-26T12:11:27.103Z,3.33
2023-04-26T12:13:54.570Z,3.38
2023-04-26T12:16:26.880Z,2.55
2023-04-26T12:18:56.766Z,3.13
2023-04-26T12:21:25.557Z,3.88
2023-04-26T12:23:53.253Z,3.20
2023-04-26T12:26:20.750Z,3.30
2023-04-26T12:28:48.235Z,3.25
2023-04-26T12:31:15.845Z,2.75
2023-04-26T12:33:43.385Z,2.97
2023-04-26T12:36:12.532Z,3.03
2023-04-26T12:38:40.569Z,3.17
2023-04-26T12:41:08.415Z,3.10
2023-04-26T12:43:36.675Z,3.72
2023-04-26T12:46:04.413Z,3.10
2023-04-26T12:48:32.012Z,3.85
2023-04-26T12:50:59.452Z,3.53
2023-04-26T12:53:27.281Z,3.42
2023-04-26T12:55:54.787Z,4.45
2023-04-26T12:58:22.761Z,3.40
2023-04-26T13:00:51.243Z,3.28
2023-04-26T13:03:18.800Z,3.22
2023-04-26T13:05:46.605Z,3.60
2023-04-26T13:08:14.287Z,3.13
2023-04-26T13:10:42.332Z,3.47
2023-04-26T13:13:10.531Z,4.15
2023-04-26T13:15:38.228Z,3.55
2023-04-26T13:18:06.583Z,3.35
2023-04-26T13:20:34.274Z,3.20
2023-04-26T13:23:01.948Z,3.10
2023-04-26T13:25:29.629Z,3.13
2023-04-26T13:27:57.160Z,3.03
2023-04-26T13:30:24.559Z,3.38
2023-04-26T13:32:52.573Z,3.00
2023-04-26T13:35:20.801Z,3.63
2023-04-26T13:37:48.641Z,3.65
2023-04-26T13:40:16.993Z,3.95
2023-04-26T13:42:44.555Z,3.35
2023-04-26T13:45:13.660Z,3.53
2023-04-26T13:47:41.497Z,3.50
2023-04-26T13:50:09.629Z,3.92
2023-04-26T13:52:37.288Z,3.47
2023-04-26T13:55:05.219Z,3.17
2023-04-26T13:57:32.907Z,4.05
2023-04-26T14:00:00.762Z,3.05
2023-04-26T14:02:28.595Z,3.38
2023-04-26T14:04:56.424Z,3.20
2023-04-26T14:07:23.911Z,3.08
2023-04-26T14:09:52.086Z,3.50
2023-04-26T14:12:19.694Z,3.15
2023-04-26T14:14:48.136Z,3.95
2023-04-26T14:17:15.778Z,3.33
2023-04-26T14:19:43.589Z,3.33
2023-04-26T14:22:12.877Z,3.47
2023-04-26T14:24:40.771Z,3.65
2023-04-26T14:27:08.381Z,3.25
2023-04-26T14:29:36.074Z,3.65
2023-04-26T14:32:03.585Z,3.40
2023-04-26T14:34:31.263Z,3.53
2023-04-26T14:37:01.586Z,3.78
2023-04-26T14:39:29.146Z,4.00
2023-04-26T14:41:56.917Z,3.28
2023-04-26T14:44:25.188Z,3.30
2023-04-26T14:46:53.240Z,3.00
2023-04-26T14:49:21.378Z,2.83
2023-04-26T14:51:49.827Z,3.35
2023-04-26T14:54:18.749Z,3.67
2023-04-26T14:56:46.390Z,3.58
2023-04-26T14:59:14.022Z,3.67
2023-04-26T15:01:41.547Z,3.70
2023-04-26T15:04:09.221Z,3.35
2023-04-26T15:06:37.381Z,3.70
2023-04-26T15:09:08.539Z,4.10
2023-04-26T15:11:36.521Z,4.10
2023-04-26T15:14:04.383Z,3.80
2023-04-26T15:16:31.939Z,3.55
2023-04-26T15:18:59.421Z,4.18
2023-04-26T15:21:28.753Z,3.95
2023-04-26T15:23:56.440Z,4.45
2023-04-26T15:26:24.010Z,4.65
2023-04-26T15:28:51.651Z,3.67
2023-04-26T15:31:20.636Z,5.38
2023-04-26T15:33:48.614Z,4.03
2023-04-26T15:36:20.491Z,4.25
2023-04-26T15:38:48.710Z,4.00
2023-04-26T15:41:16.417Z,4.00
2023-04-26T15:43:43.936Z,4.63
2023-04-26T15:46:17.445Z,4.05
2023-04-26T15:48:44.977Z,4.85
2023-04-26T15:51:12.367Z,4.40
2023-04-26T15:53:43.635Z,4.55
2023-04-26T15:56:17.864Z,4.32
2023-04-26T15:58:48.618Z,5.18
2023-04-26T16:01:16.424Z,4.38
2023-04-26T16:03:47.475Z,5.00
2023-04-26T16:06:15.577Z,4.75
2023-04-26T16:08:43.309Z,4.20
2023-04-26T16:11:11.238Z,4.10
2023-04-26T16:13:38.873Z,5.55
2023-04-26T16:16:09.045Z,4.70
2023-04-26T16:18:39.636Z,18.52
2023-04-26T16:21:09.537Z,5.88
2023-04-26T16:23:37.734Z,4.22
2023-04-26T16:26:05.578Z,4.07
2023-04-26T16:28:33.121Z,6.15
2023-04-26T16:31:01.166Z,5.88
2023-04-26T16:33:28.925Z,5.80
2023-04-26T16:35:57.363Z,6.03
2023-04-26T16:38:24.941Z,4.85
2023-04-26T16:40:57.719Z,4.82
2023-04-26T16:43:27.145Z,8.57
2023-04-26T16:46:06.527Z,6.20
2023-04-26T16:48:35.576Z,4.50
2023-04-26T16:51:07.181Z,5.03
2023-04-26T16:53:36.282Z,4.68
2023-04-26T16:56:04.322Z,4.20
2023-04-26T16:58:31.927Z,4.60
2023-04-26T17:00:59.659Z,3.65
2023-04-26T17:03:28.346Z,4.32
2023-04-26T17:05:56.123Z,4.45
2023-04-26T17:08:23.764Z,4.07
2023-04-26T17:10:52.034Z,3.97
2023-04-26T17:13:21.611Z,3.85
2023-04-26T17:15:49.467Z,4.53
2023-04-26T17:18:17.054Z,4.78
2023-04-26T17:20:44.683Z,4.53
2023-04-26T17:23:12.177Z,5.07
2023-04-26T17:25:39.697Z,4.80
2023-04-26T17:28:07.250Z,4.85
2023-04-26T17:30:34.687Z,4.40
2023-04-26T17:33:02.686Z,4.45
2023-04-26T17:35:30.857Z,4.60
2023-04-26T17:37:58.385Z,4.63
2023-04-26T17:40:26.127Z,5.60
2023-04-26T17:42:53.800Z,4.70
2023-04-26T17:45:21.533Z,4.68
2023-04-26T17:47:49.552Z,5.00
2023-04-26T17:50:17.836Z,4.82
2023-04-26T17:52:45.720Z,4.70
2023-04-26T17:55:14.081Z,5.75
2023-04-26T17:57:41.730Z,7.00
2023-04-26T18:00:10.355Z,7.22
2023-04-26T18:02:38.367Z,6.15
2023-04-26T18:05:08.437Z,6.90
2023-04-26T18:07:36.331Z,9.40
2023-04-26T18:10:04.280Z,8.50
2023-04-26T18:12:36.224Z,9.48
2023-04-26T18:15:04.505Z,9.15
2023-04-26T18:17:32.244Z,10.30
2023-04-26T18:19:59.709Z,10.30
2023-04-26T18:22:27.586Z,11.40
2023-04-26T18:24:55.237Z,10.77
2023-04-26T18:27:22.724Z,11.15
2023-04-26T18:29:50.693Z,10.52
2023-04-26T18:32:18.217Z,10.70
2023-04-26T18:34:46.808Z,10.75
2023-04-26T18:37:14.472Z,10.52
2023-04-26T18:39:42.001Z,12.90
2023-04-26T18:42:09.552Z,11.68
2023-04-26T18:44:37.169Z,10.32
2023-04-26T18:47:05.762Z,11.38
2023-04-26T18:49:33.305Z,9.27
2023-04-26T18:52:01.615Z,11.18
2023-04-26T18:54:30.996Z,9.70
2023-04-26T18:57:00.279Z,12.05
2023-04-26T18:59:28.983Z,10.97
2023-04-26T19:01:57.055Z,10.00
2023-04-26T19:04:24.865Z,8.68
2023-04-26T19:06:52.626Z,8.18
2023-04-26T19:09:20.167Z,8.32
2023-04-26T19:11:48.274Z,8.13
2023-04-26T19:14:15.772Z,7.90
2023-04-26T19:16:43.984Z,7.35
2023-04-26T19:19:11.397Z,7.47
2023-04-26T19:21:39.097Z,7.72
2023-04-26T19:24:06.913Z,7.25
2023-04-26T19:26:34.445Z,7.93
2023-04-26T19:29:03.207Z,8.07
2023-04-26T19:31:32.672Z,8.48
2023-04-26T19:34:00.579Z,8.40
2023-04-26T19:36:28.760Z,8.65
2023-04-26T19:38:56.191Z,9.65
2023-04-26T19:41:24.032Z,7.93
2023-04-26T19:43:51.758Z,9.55
2023-04-26T19:46:19.279Z,9.18
2023-04-26T19:48:47.575Z,8.23
2023-04-26T19:51:17.013Z,8.32
2023-04-26T19:53:45.058Z,8.82
2023-04-26T19:56:12.764Z,20.92
2023-04-26T19:58:40.539Z,8.55
2023-04-26T20:01:08.285Z,10.93
2023-04-26T20:03:37.547Z,9.88
2023-04-26T20:06:05.172Z,8.75
2023-04-26T20:08:32.608Z,8.02
2023-04-26T20:11:04.493Z,8.27
2023-04-26T20:13:32.437Z,7.95
2023-04-26T20:16:00.782Z,8.60
2023-04-26T20:18:28.462Z,8.38
2023-04-26T20:20:56.084Z,8.98
2023-04-26T20:23:23.451Z,7.57
2023-04-26T20:25:51.585Z,8.88
2023-04-26T20:28:19.337Z,10.57
2023-04-26T20:30:46.874Z,9.25
2023-04-26T20:33:14.442Z,8.73
2023-04-26T20:35:41.983Z,8.70
2023-04-26T20:38:10.185Z,9.90
2023-04-26T20:40:37.840Z,10.20
2023-04-26T20:43:05.442Z,9.38
2023-04-26T20:45:33.114Z,8.90
2023-04-26T20:48:00.654Z,9.27
2023-04-26T20:50:28.286Z,8.60
2023-04-26T20:52:55.926Z,9.88
2023-04-26T20:55:23.603Z,9.75
2023-04-26T20:57:51.062Z,9.93
2023-04-26T21:00:19.067Z,10.13
2023-04-26T21:02:46.604Z,10.13
2023-04-26T21:05:14.069Z,10.30
2023-04-26T21:07:41.515Z,10.30
2023-04-26T21:10:09.778Z,10.15
2023-04-26T21:12:38.150Z,12.52
2023-04-26T21:15:06.359Z,12.05
2023-04-26T21:17:35.472Z,10.38
2023-04-26T21:20:04.320Z,9.40
2023-04-26T21:22:31.960Z,9.40
2023-04-26T21:24:59.634Z,8.80
2023-04-26T21:27:27.226Z,9.25
2023-04-26T21:29:56.529Z,10.63
2023-04-26T21:32:24.038Z,10.05
2023-04-26T21:34:51.554Z,8.48
2023-04-26T21:37:19.674Z,9.13
2023-04-26T21:39:47.491Z,9.68
2023-04-26T21:42:15.624Z,8.90
2023-04-26T21:44:43.219Z,8.82
2023-04-26T21:47:11.446Z,8.10
2023-04-26T21:49:39.609Z,8.48
2023-04-26T21:52:07.028Z,9.35
2023-04-26T21:54:35.815Z,9.50
2023-04-26T21:57:06.806Z,10.20
2023-04-26T21:59:34.486Z,9.50
2023-04-26T22:02:02.946Z,9.10
2023-04-26T22:04:31.004Z,9.13
2023-04-26T22:06:58.647Z,8.38
2023-04-26T22:09:26.546Z,8.27
2023-04-26T22:11:54.101Z,8.98
2023-04-26T22:14:21.695Z,9.38
2023-04-26T22:16:58.406Z,8.27
2023-04-26T22:19:26.448Z,9.77
2023-04-26T22:21:56.031Z,8.18
2023-04-26T22:24:24.317Z,8.32
2023-04-26T22:26:52.006Z,8.57
2023-04-26T22:29:19.535Z,8.23
2023-04-26T22:31:47.112Z,8.63
2023-04-26T22:34:14.755Z,8.15
2023-04-26T22:36:42.367Z,7.88
2023-04-26T22:39:10.310Z,8.65
2023-04-26T22:41:38.511Z,7.82
2023-04-26T22:44:06.083Z,7.53
2023-04-26T22:46:33.634Z,7.60
2023-04-26T22:49:01.202Z,7.25
2023-04-26T22:51:28.762Z,7.78
2023-04-26T22:53:56.184Z,7.95
2023-04-26T22:56:23.689Z,7.38
2023-04-26T22:58:51.166Z,8.52
2023-04-26T23:01:18.651Z,8.10
2023-04-26T23:03:46.190Z,6.88
2023-04-26T23:06:13.638Z,7.07
2023-04-26T23:08:41.012Z,7.45
2023-04-26T23:11:09.384Z,7.00
2023-04-26T23:13:37.121Z,7.40
2023-04-26T23:16:05.070Z,6.65
2023-04-26T23:18:34.156Z,7.25
2023-04-26T23:21:01.895Z,7.47
2023-04-26T23:23:29.568Z,6.82
2023-04-26T23:25:57.333Z,7.93
2023-04-26T23:28:24.970Z,6.75
2023-04-26T23:30:52.457Z,7.90
2023-04-26T23:33:19.923Z,8.18
2023-04-26T23:35:47.493Z,8.23
2023-04-26T23:38:15.060Z,7.85
2023-04-26T23:40:42.467Z,10.85
2023-04-26T23:43:13.003Z,10.40
2023-04-26T23:45:47.074Z,9.80
2023-04-26T23:48:17.350Z,9.75
2023-04-26T23:50:45.610Z,10.05
2023-04-26T23:53:13.263Z,10.43
2023-04-26T23:55:40.923Z,9.70
2023-04-26T23:58:08.439Z,9.68
